sensor_id;sensor_type;location;lat;lon;timestamp;temperature;humidity
9542;DHT22;4809;48.224;8.572;2023-10-08T00:01:21;13.10;67.10
9542;DHT22;4809;48.224;8.572;2023-10-08T00:03:47;13.00;67.80
9542;DHT22;4809;48.224;8.572;2023-10-08T00:06:19;13.00;68.10
9542;DHT22;4809;48.224;8.572;2023-10-08T00:08:48;13.00;67.80
9542;DHT22;4809;48.224;8.572;2023-10-08T00:11:14;13.00;68.50
9542;DHT22;4809;48.224;8.572;2023-10-08T00:13:42;13.00;67.90
9542;DHT22;4809;48.224;8.572;2023-10-08T00:16:09;13.00;67.80
9542;DHT22;4809;48.224;8.572;2023-10-08T00:18:36;12.90;67.90
9542;DHT22;4809;48.224;8.572;2023-10-08T00:21:03;12.90;67.40
9542;DHT22;4809;48.224;8.572;2023-10-08T00:23:38;13.00;67.40
9542;DHT22;4809;48.224;8.572;2023-10-08T00:26:22;13.00;67.50
9542;DHT22;4809;48.224;8.572;2023-10-08T00:29:01;13.00;67.30
9542;DHT22;4809;48.224;8.572;2023-10-08T00:31:32;13.10;67.50
9542;DHT22;4809;48.224;8.572;2023-10-08T00:34:04;13.00;67.20
9542;DHT22;4809;48.224;8.572;2023-10-08T00:36:40;13.10;68.10
9542;DHT22;4809;48.224;8.572;2023-10-08T00:39:10;13.00;68.70
9542;DHT22;4809;48.224;8.572;2023-10-08T00:41:44;12.90;69.10
9542;DHT22;4809;48.224;8.572;2023-10-08T00:44:13;12.90;69.70
9542;DHT22;4809;48.224;8.572;2023-10-08T00:46:42;12.80;69.90
9542;DHT22;4809;48.224;8.572;2023-10-08T00:49:17;12.80;69.70
9542;DHT22;4809;48.224;8.572;2023-10-08T00:51:47;12.80;69.90
9542;DHT22;4809;48.224;8.572;2023-10-08T00:54:13;12.70;71.10
9542;DHT22;4809;48.224;8.572;2023-10-08T00:56:46;12.70;71.60
9542;DHT22;4809;48.224;8.572;2023-10-08T00:59:12;12.60;71.40
9542;DHT22;4809;48.224;8.572;2023-10-08T01:01:39;12.60;71.60
9542;DHT22;4809;48.224;8.572;2023-10-08T01:04:05;12.60;71.70
9542;DHT22;4809;48.224;8.572;2023-10-08T01:06:38;12.50;72.10
9542;DHT22;4809;48.224;8.572;2023-10-08T01:09:05;12.50;72.40
9542;DHT22;4809;48.224;8.572;2023-10-08T01:11:44;12.50;72.00
9542;DHT22;4809;48.224;8.572;2023-10-08T01:14:16;12.50;72.40
9542;DHT22;4809;48.224;8.572;2023-10-08T01:16:46;12.40;72.90
9542;DHT22;4809;48.224;8.572;2023-10-08T01:19:18;12.40;73.10
9542;DHT22;4809;48.224;8.572;2023-10-08T01:21:45;12.40;73.00
9542;DHT22;4809;48.224;8.572;2023-10-08T01:24:11;12.40;74.00
9542;DHT22;4809;48.224;8.572;2023-10-08T01:26:42;12.40;73.50
9542;DHT22;4809;48.224;8.572;2023-10-08T01:29:11;12.40;72.70
9542;DHT22;4809;48.224;8.572;2023-10-08T01:31:45;12.40;72.80
9542;DHT22;4809;48.224;8.572;2023-10-08T01:34:11;12.40;72.60
9542;DHT22;4809;48.224;8.572;2023-10-08T01:36:42;12.40;73.40
9542;DHT22;4809;48.224;8.572;2023-10-08T01:39:10;12.40;73.00
9542;DHT22;4809;48.224;8.572;2023-10-08T01:41:42;12.40;73.30
9542;DHT22;4809;48.224;8.572;2023-10-08T01:44:08;12.40;73.60
9542;DHT22;4809;48.224;8.572;2023-10-08T01:46:34;12.30;73.40
9542;DHT22;4809;48.224;8.572;2023-10-08T01:49:00;12.30;74.20
9542;DHT22;4809;48.224;8.572;2023-10-08T01:51:30;12.30;74.40
9542;DHT22;4809;48.224;8.572;2023-10-08T01:54:10;12.20;75.50
9542;DHT22;4809;48.224;8.572;2023-10-08T01:56:42;12.20;74.70
9542;DHT22;4809;48.224;8.572;2023-10-08T01:59:13;12.20;74.40
9542;DHT22;4809;48.224;8.572;2023-10-08T02:01:43;12.20;75.10
9542;DHT22;4809;48.224;8.572;2023-10-08T02:04:09;12.20;73.80
9542;DHT22;4809;48.224;8.572;2023-10-08T02:06:38;12.30;74.30
9542;DHT22;4809;48.224;8.572;2023-10-08T02:09:07;12.30;74.60
9542;DHT22;4809;48.224;8.572;2023-10-08T02:11:43;12.30;74.70
9542;DHT22;4809;48.224;8.572;2023-10-08T02:14:09;12.30;74.90
9542;DHT22;4809;48.224;8.572;2023-10-08T02:16:34;12.30;74.80
9542;DHT22;4809;48.224;8.572;2023-10-08T02:19:00;12.30;75.40
9542;DHT22;4809;48.224;8.572;2023-10-08T02:21:25;12.40;75.90
9542;DHT22;4809;48.224;8.572;2023-10-08T02:23:52;12.30;76.00
9542;DHT22;4809;48.224;8.572;2023-10-08T02:26:18;12.30;76.80
9542;DHT22;4809;48.224;8.572;2023-10-08T02:28:45;12.40;77.60
9542;DHT22;4809;48.224;8.572;2023-10-08T02:31:10;12.30;76.60
9542;DHT22;4809;48.224;8.572;2023-10-08T02:33:36;12.30;76.60
9542;DHT22;4809;48.224;8.572;2023-10-08T02:36:02;12.30;76.30
9542;DHT22;4809;48.224;8.572;2023-10-08T02:38:29;12.30;76.00
9542;DHT22;4809;48.224;8.572;2023-10-08T02:41:02;12.30;76.00
9542;DHT22;4809;48.224;8.572;2023-10-08T02:43:32;12.30;75.70
9542;DHT22;4809;48.224;8.572;2023-10-08T02:46:00;12.30;76.00
9542;DHT22;4809;48.224;8.572;2023-10-08T02:48:26;12.30;76.00
9542;DHT22;4809;48.224;8.572;2023-10-08T02:50:52;12.30;75.90
9542;DHT22;4809;48.224;8.572;2023-10-08T02:53:20;12.40;75.90
9542;DHT22;4809;48.224;8.572;2023-10-08T02:55:49;12.40;76.00
9542;DHT22;4809;48.224;8.572;2023-10-08T02:58:15;12.40;75.90
9542;DHT22;4809;48.224;8.572;2023-10-08T03:00:46;12.40;76.20
9542;DHT22;4809;48.224;8.572;2023-10-08T03:03:13;12.30;76.20
9542;DHT22;4809;48.224;8.572;2023-10-08T03:05:45;12.30;76.30
9542;DHT22;4809;48.224;8.572;2023-10-08T03:08:12;12.40;76.10
9542;DHT22;4809;48.224;8.572;2023-10-08T03:10:41;12.40;76.10
9542;DHT22;4809;48.224;8.572;2023-10-08T03:13:07;12.40;76.00
9542;DHT22;4809;48.224;8.572;2023-10-08T03:15:35;12.40;76.50
9542;DHT22;4809;48.224;8.572;2023-10-08T03:18:15;12.40;76.50
9542;DHT22;4809;48.224;8.572;2023-10-08T03:20:42;12.40;76.50
9542;DHT22;4809;48.224;8.572;2023-10-08T03:23:16;12.40;76.70
9542;DHT22;4809;48.224;8.572;2023-10-08T03:25:59;12.30;77.10
9542;DHT22;4809;48.224;8.572;2023-10-08T03:28:43;12.30;77.40
9542;DHT22;4809;48.224;8.572;2023-10-08T03:31:08;12.30;76.80
9542;DHT22;4809;48.224;8.572;2023-10-08T03:33:46;12.30;77.00
9542;DHT22;4809;48.224;8.572;2023-10-08T03:36:17;12.30;76.90
9542;DHT22;4809;48.224;8.572;2023-10-08T03:39:00;12.30;77.30
9542;DHT22;4809;48.224;8.572;2023-10-08T03:41:35;12.30;77.40
9542;DHT22;4809;48.224;8.572;2023-10-08T03:44:05;12.30;77.70
9542;DHT22;4809;48.224;8.572;2023-10-08T03:46:36;12.20;78.20
9542;DHT22;4809;48.224;8.572;2023-10-08T03:49:05;12.10;78.90
9542;DHT22;4809;48.224;8.572;2023-10-08T03:52:00;12.00;79.10
9542;DHT22;4809;48.224;8.572;2023-10-08T03:54:26;11.90;79.60
9542;DHT22;4809;48.224;8.572;2023-10-08T03:57:01;11.90;79.70
9542;DHT22;4809;48.224;8.572;2023-10-08T03:59:32;11.90;79.90
9542;DHT22;4809;48.224;8.572;2023-10-08T04:02:00;11.90;80.50
9542;DHT22;4809;48.224;8.572;2023-10-08T04:04:39;11.80;80.30
9542;DHT22;4809;48.224;8.572;2023-10-08T04:07:25;11.80;80.70
9542;DHT22;4809;48.224;8.572;2023-10-08T04:10:00;11.80;81.40
9542;DHT22;4809;48.224;8.572;2023-10-08T04:12:35;11.80;81.20
9542;DHT22;4809;48.224;8.572;2023-10-08T04:15:06;11.80;81.40
9542;DHT22;4809;48.224;8.572;2023-10-08T04:17:36;11.80;81.70
9542;DHT22;4809;48.224;8.572;2023-10-08T04:20:13;11.70;81.60
9542;DHT22;4809;48.224;8.572;2023-10-08T04:22:59;11.70;81.80
9542;DHT22;4809;48.224;8.572;2023-10-08T04:25:26;11.80;82.00
9542;DHT22;4809;48.224;8.572;2023-10-08T04:27:57;11.80;82.20
9542;DHT22;4809;48.224;8.572;2023-10-08T04:30:26;11.70;82.50
9542;DHT22;4809;48.224;8.572;2023-10-08T04:33:02;11.70;82.70
9542;DHT22;4809;48.224;8.572;2023-10-08T04:35:39;11.70;82.80
9542;DHT22;4809;48.224;8.572;2023-10-08T04:38:25;11.60;83.80
9542;DHT22;4809;48.224;8.572;2023-10-08T04:40:52;11.60;83.20
9542;DHT22;4809;48.224;8.572;2023-10-08T04:43:22;11.60;83.30
9542;DHT22;4809;48.224;8.572;2023-10-08T04:46:00;11.60;83.30
9542;DHT22;4809;48.224;8.572;2023-10-08T04:48:52;11.60;83.40
9542;DHT22;4809;48.224;8.572;2023-10-08T04:51:18;11.60;83.80
9542;DHT22;4809;48.224;8.572;2023-10-08T04:53:47;11.70;84.80
9542;DHT22;4809;48.224;8.572;2023-10-08T04:56:14;11.60;84.60
9542;DHT22;4809;48.224;8.572;2023-10-08T04:58:43;11.50;85.10
9542;DHT22;4809;48.224;8.572;2023-10-08T05:01:15;11.60;85.20
9542;DHT22;4809;48.224;8.572;2023-10-08T05:03:49;11.50;85.40
9542;DHT22;4809;48.224;8.572;2023-10-08T05:06:22;11.60;85.70
9542;DHT22;4809;48.224;8.572;2023-10-08T05:09:11;11.60;85.70
9542;DHT22;4809;48.224;8.572;2023-10-08T05:11:47;11.60;85.80
9542;DHT22;4809;48.224;8.572;2023-10-08T05:14:18;11.60;86.20
9542;DHT22;4809;48.224;8.572;2023-10-08T05:17:00;11.50;86.10
9542;DHT22;4809;48.224;8.572;2023-10-08T05:19:29;11.50;86.10
9542;DHT22;4809;48.224;8.572;2023-10-08T05:22:11;11.50;86.20
9542;DHT22;4809;48.224;8.572;2023-10-08T05:25:09;11.60;86.30
9542;DHT22;4809;48.224;8.572;2023-10-08T05:27:43;11.60;86.50
9542;DHT22;4809;48.224;8.572;2023-10-08T05:33:02;11.60;86.90
9542;DHT22;4809;48.224;8.572;2023-10-08T05:35:47;11.50;87.00
9542;DHT22;4809;48.224;8.572;2023-10-08T05:38:23;11.50;87.30
9542;DHT22;4809;48.224;8.572;2023-10-08T05:41:00;11.50;87.40
9542;DHT22;4809;48.224;8.572;2023-10-08T05:43:34;11.50;87.40
9542;DHT22;4809;48.224;8.572;2023-10-08T05:46:07;11.50;87.70
9542;DHT22;4809;48.224;8.572;2023-10-08T05:49:05;11.50;88.20
9542;DHT22;4809;48.224;8.572;2023-10-08T05:51:37;11.50;88.30
9542;DHT22;4809;48.224;8.572;2023-10-08T05:54:30;11.50;88.30
9542;DHT22;4809;48.224;8.572;2023-10-08T05:57:06;11.60;88.20
9542;DHT22;4809;48.224;8.572;2023-10-08T05:59:49;11.60;88.50
9542;DHT22;4809;48.224;8.572;2023-10-08T06:02:25;11.70;89.00
9542;DHT22;4809;48.224;8.572;2023-10-08T06:05:05;11.60;88.80
9542;DHT22;4809;48.224;8.572;2023-10-08T06:07:50;11.70;89.00
9542;DHT22;4809;48.224;8.572;2023-10-08T06:13:00;11.80;89.50
9542;DHT22;4809;48.224;8.572;2023-10-08T06:15:43;11.80;89.70
9542;DHT22;4809;48.224;8.572;2023-10-08T06:18:25;11.80;90.00
9542;DHT22;4809;48.224;8.572;2023-10-08T06:20:55;11.90;90.30
9542;DHT22;4809;48.224;8.572;2023-10-08T06:23:21;11.90;90.30
9542;DHT22;4809;48.224;8.572;2023-10-08T06:25:49;11.90;90.40
9542;DHT22;4809;48.224;8.572;2023-10-08T06:28:31;12.00;90.40
9542;DHT22;4809;48.224;8.572;2023-10-08T06:31:01;12.00;90.60
9542;DHT22;4809;48.224;8.572;2023-10-08T06:33:27;12.00;90.90
9542;DHT22;4809;48.224;8.572;2023-10-08T06:35:59;12.00;90.90
9542;DHT22;4809;48.224;8.572;2023-10-08T06:38:34;12.00;91.30
9542;DHT22;4809;48.224;8.572;2023-10-08T06:41:05;12.00;91.50
9542;DHT22;4809;48.224;8.572;2023-10-08T06:43:35;12.20;91.80
9542;DHT22;4809;48.224;8.572;2023-10-08T06:46:02;12.30;91.80
9542;DHT22;4809;48.224;8.572;2023-10-08T06:48:29;12.50;92.20
9542;DHT22;4809;48.224;8.572;2023-10-08T06:50:55;12.70;92.10
9542;DHT22;4809;48.224;8.572;2023-10-08T06:53:22;12.90;91.90
9542;DHT22;4809;48.224;8.572;2023-10-08T06:55:48;13.10;91.30
9542;DHT22;4809;48.224;8.572;2023-10-08T06:58:24;13.30;90.90
9542;DHT22;4809;48.224;8.572;2023-10-08T07:00:50;13.50;91.00
9542;DHT22;4809;48.224;8.572;2023-10-08T07:03:16;13.70;90.90
9542;DHT22;4809;48.224;8.572;2023-10-08T07:05:48;14.10;90.90
9542;DHT22;4809;48.224;8.572;2023-10-08T07:08:24;14.40;90.50
9542;DHT22;4809;48.224;8.572;2023-10-08T07:10:53;14.70;90.10
9542;DHT22;4809;48.224;8.572;2023-10-08T07:13:20;15.00;90.30
9542;DHT22;4809;48.224;8.572;2023-10-08T07:15:50;15.20;91.20
9542;DHT22;4809;48.224;8.572;2023-10-08T07:18:16;15.40;89.50
9542;DHT22;4809;48.224;8.572;2023-10-08T07:20:51;15.70;87.60
9542;DHT22;4809;48.224;8.572;2023-10-08T07:23:20;15.90;89.50
9542;DHT22;4809;48.224;8.572;2023-10-08T07:26:02;16.20;90.00
9542;DHT22;4809;48.224;8.572;2023-10-08T07:28:38;16.40;90.10
9542;DHT22;4809;48.224;8.572;2023-10-08T07:31:17;16.40;90.00
9542;DHT22;4809;48.224;8.572;2023-10-08T07:33:46;16.50;90.50
9542;DHT22;4809;48.224;8.572;2023-10-08T07:36:11;16.50;90.90
9542;DHT22;4809;48.224;8.572;2023-10-08T07:38:40;16.40;91.10
9542;DHT22;4809;48.224;8.572;2023-10-08T07:41:12;16.50;91.50
9542;DHT22;4809;48.224;8.572;2023-10-08T07:43:43;16.40;91.40
9542;DHT22;4809;48.224;8.572;2023-10-08T07:46:10;16.40;91.00
9542;DHT22;4809;48.224;8.572;2023-10-08T07:48:36;16.40;91.10
9542;DHT22;4809;48.224;8.572;2023-10-08T07:51:02;16.40;91.20
9542;DHT22;4809;48.224;8.572;2023-10-08T07:53:28;16.50;91.80
9542;DHT22;4809;48.224;8.572;2023-10-08T07:56:07;16.60;92.40
9542;DHT22;4809;48.224;8.572;2023-10-08T07:58:36;16.90;91.80
9542;DHT22;4809;48.224;8.572;2023-10-08T08:01:04;17.20;90.50
9542;DHT22;4809;48.224;8.572;2023-10-08T08:03:32;17.40;90.30
9542;DHT22;4809;48.224;8.572;2023-10-08T08:06:00;17.80;89.30
9542;DHT22;4809;48.224;8.572;2023-10-08T08:08:26;18.10;87.70
9542;DHT22;4809;48.224;8.572;2023-10-08T08:10:53;18.40;86.70
9542;DHT22;4809;48.224;8.572;2023-10-08T08:13:29;18.60;86.20
9542;DHT22;4809;48.224;8.572;2023-10-08T08:15:55;18.80;83.90
9542;DHT22;4809;48.224;8.572;2023-10-08T08:18:25;18.90;85.20
9542;DHT22;4809;48.224;8.572;2023-10-08T08:20:50;19.00;83.80
9542;DHT22;4809;48.224;8.572;2023-10-08T08:23:16;19.10;82.30
9542;DHT22;4809;48.224;8.572;2023-10-08T08:25:42;19.40;82.40
9542;DHT22;4809;48.224;8.572;2023-10-08T08:28:12;19.70;81.20
9542;DHT22;4809;48.224;8.572;2023-10-08T08:30:47;19.90;81.00
9542;DHT22;4809;48.224;8.572;2023-10-08T08:33:14;20.20;83.40
9542;DHT22;4809;48.224;8.572;2023-10-08T08:36:08;20.50;81.50
9542;DHT22;4809;48.224;8.572;2023-10-08T08:38:33;20.80;76.70
9542;DHT22;4809;48.224;8.572;2023-10-08T08:41:03;21.00;74.50
9542;DHT22;4809;48.224;8.572;2023-10-08T08:43:34;21.20;72.20
9542;DHT22;4809;48.224;8.572;2023-10-08T08:46:03;21.40;72.90
9542;DHT22;4809;48.224;8.572;2023-10-08T08:48:32;21.50;73.00
9542;DHT22;4809;48.224;8.572;2023-10-08T08:50:59;21.80;72.50
9542;DHT22;4809;48.224;8.572;2023-10-08T08:53:25;21.90;69.20
9542;DHT22;4809;48.224;8.572;2023-10-08T08:55:54;21.80;69.30
9542;DHT22;4809;48.224;8.572;2023-10-08T08:58:20;21.90;69.30
9542;DHT22;4809;48.224;8.572;2023-10-08T09:00:47;22.00;69.10
9542;DHT22;4809;48.224;8.572;2023-10-08T09:03:17;22.20;68.90
9542;DHT22;4809;48.224;8.572;2023-10-08T09:05:45;22.30;67.50
9542;DHT22;4809;48.224;8.572;2023-10-08T09:08:16;22.40;67.40
9542;DHT22;4809;48.224;8.572;2023-10-08T09:10:44;22.60;66.70
9542;DHT22;4809;48.224;8.572;2023-10-08T09:13:22;22.70;66.10
9542;DHT22;4809;48.224;8.572;2023-10-08T09:15:49;22.80;65.50
9542;DHT22;4809;48.224;8.572;2023-10-08T09:18:15;23.00;64.80
9542;DHT22;4809;48.224;8.572;2023-10-08T09:20:41;23.10;64.20
9542;DHT22;4809;48.224;8.572;2023-10-08T09:23:15;23.40;65.00
9542;DHT22;4809;48.224;8.572;2023-10-08T09:25:44;23.70;62.40
9542;DHT22;4809;48.224;8.572;2023-10-08T09:28:10;23.60;62.00
9542;DHT22;4809;48.224;8.572;2023-10-08T09:30:39;23.50;61.70
9542;DHT22;4809;48.224;8.572;2023-10-08T09:33:10;23.30;61.50
9542;DHT22;4809;48.224;8.572;2023-10-08T09:35:38;23.20;62.00
9542;DHT22;4809;48.224;8.572;2023-10-08T09:38:07;23.30;62.00
9542;DHT22;4809;48.224;8.572;2023-10-08T09:40:38;23.60;62.50
9542;DHT22;4809;48.224;8.572;2023-10-08T09:43:04;24.00;60.00
9542;DHT22;4809;48.224;8.572;2023-10-08T09:45:30;24.20;56.30
9542;DHT22;4809;48.224;8.572;2023-10-08T09:47:56;24.50;58.40
9542;DHT22;4809;48.224;8.572;2023-10-08T09:50:28;24.80;57.00
9542;DHT22;4809;48.224;8.572;2023-10-08T09:53:01;24.80;55.70
9542;DHT22;4809;48.224;8.572;2023-10-08T09:55:31;24.80;54.10
9542;DHT22;4809;48.224;8.572;2023-10-08T09:57:57;24.80;55.50
9542;DHT22;4809;48.224;8.572;2023-10-08T10:00:24;24.80;55.30
9542;DHT22;4809;48.224;8.572;2023-10-08T10:03:02;25.00;53.90
9542;DHT22;4809;48.224;8.572;2023-10-08T10:05:34;25.00;54.50
9542;DHT22;4809;48.224;8.572;2023-10-08T10:08:03;25.10;52.80
9542;DHT22;4809;48.224;8.572;2023-10-08T10:10:36;25.10;52.20
9542;DHT22;4809;48.224;8.572;2023-10-08T10:13:10;25.30;52.90
9542;DHT22;4809;48.224;8.572;2023-10-08T10:15:39;25.40;51.90
9542;DHT22;4809;48.224;8.572;2023-10-08T10:18:16;25.70;52.20
9542;DHT22;4809;48.224;8.572;2023-10-08T10:21:36;25.70;50.90
9542;DHT22;4809;48.224;8.572;2023-10-08T10:23:44;25.70;49.90
9542;DHT22;4809;48.224;8.572;2023-10-08T10:26:27;25.90;50.60
9542;DHT22;4809;48.224;8.572;2023-10-08T10:34:17;26.50;47.20
9542;DHT22;4809;48.224;8.572;2023-10-08T10:36:44;26.60;47.30
9542;DHT22;4809;48.224;8.572;2023-10-08T10:39:18;26.70;47.20
9542;DHT22;4809;48.224;8.572;2023-10-08T10:41:52;26.80;47.40
9542;DHT22;4809;48.224;8.572;2023-10-08T10:44:23;26.90;46.60
9542;DHT22;4809;48.224;8.572;2023-10-08T10:46:49;27.00;45.80
9542;DHT22;4809;48.224;8.572;2023-10-08T10:49:38;27.30;46.20
9542;DHT22;4809;48.224;8.572;2023-10-08T10:52:14;27.50;47.70
9542;DHT22;4809;48.224;8.572;2023-10-08T10:54:51;27.80;46.10
9542;DHT22;4809;48.224;8.572;2023-10-08T10:57:25;27.90;45.90
9542;DHT22;4809;48.224;8.572;2023-10-08T11:00:02;27.90;44.80
9542;DHT22;4809;48.224;8.572;2023-10-08T11:02:44;27.70;43.50
9542;DHT22;4809;48.224;8.572;2023-10-08T11:05:15;27.60;45.40
9542;DHT22;4809;48.224;8.572;2023-10-08T11:07:46;28.00;45.30
9542;DHT22;4809;48.224;8.572;2023-10-08T11:10:13;28.20;43.50
9542;DHT22;4809;48.224;8.572;2023-10-08T11:12:42;27.90;44.20
9542;DHT22;4809;48.224;8.572;2023-10-08T11:15:18;27.70;43.40
9542;DHT22;4809;48.224;8.572;2023-10-08T11:17:44;27.90;43.60
9542;DHT22;4809;48.224;8.572;2023-10-08T11:20:25;28.10;43.10
9542;DHT22;4809;48.224;8.572;2023-10-08T11:22:50;28.30;42.80
9542;DHT22;4809;48.224;8.572;2023-10-08T11:25:23;28.10;42.40
9542;DHT22;4809;48.224;8.572;2023-10-08T11:27:53;28.30;42.30
9542;DHT22;4809;48.224;8.572;2023-10-08T11:30:28;28.30;42.10
9542;DHT22;4809;48.224;8.572;2023-10-08T11:33:00;28.60;43.30
9542;DHT22;4809;48.224;8.572;2023-10-08T11:35:26;28.90;42.00
9542;DHT22;4809;48.224;8.572;2023-10-08T11:38:00;29.00;42.00
9542;DHT22;4809;48.224;8.572;2023-10-08T11:40:28;29.00;41.70
9542;DHT22;4809;48.224;8.572;2023-10-08T11:42:57;29.00;41.80
9542;DHT22;4809;48.224;8.572;2023-10-08T11:45:28;28.90;38.90
9542;DHT22;4809;48.224;8.572;2023-10-08T11:48:04;29.00;40.20
9542;DHT22;4809;48.224;8.572;2023-10-08T11:50:40;29.10;40.40
9542;DHT22;4809;48.224;8.572;2023-10-08T11:53:06;29.30;40.10
9542;DHT22;4809;48.224;8.572;2023-10-08T11:55:33;29.30;40.60
9542;DHT22;4809;48.224;8.572;2023-10-08T11:58:05;29.60;39.90
9542;DHT22;4809;48.224;8.572;2023-10-08T12:00:41;29.90;39.60
9542;DHT22;4809;48.224;8.572;2023-10-08T12:03:15;29.90;40.70
9542;DHT22;4809;48.224;8.572;2023-10-08T12:05:47;30.20;39.10
9542;DHT22;4809;48.224;8.572;2023-10-08T12:08:19;30.30;40.80
9542;DHT22;4809;48.224;8.572;2023-10-08T12:10:46;30.50;38.80
9542;DHT22;4809;48.224;8.572;2023-10-08T12:13:15;30.70;39.00
9542;DHT22;4809;48.224;8.572;2023-10-08T12:15:44;30.80;38.50
9542;DHT22;4809;48.224;8.572;2023-10-08T12:18:10;30.60;37.10
9542;DHT22;4809;48.224;8.572;2023-10-08T12:20:51;30.80;37.50
9542;DHT22;4809;48.224;8.572;2023-10-08T12:23:19;30.70;36.60
9542;DHT22;4809;48.224;8.572;2023-10-08T12:25:57;30.70;36.70
9542;DHT22;4809;48.224;8.572;2023-10-08T12:28:25;30.50;36.50
9542;DHT22;4809;48.224;8.572;2023-10-08T12:30:54;30.30;37.50
9542;DHT22;4809;48.224;8.572;2023-10-08T12:33:24;30.10;37.70
9542;DHT22;4809;48.224;8.572;2023-10-08T12:35:52;29.90;37.80
9542;DHT22;4809;48.224;8.572;2023-10-08T12:38:24;29.70;38.10
9542;DHT22;4809;48.224;8.572;2023-10-08T12:40:53;30.00;39.10
9542;DHT22;4809;48.224;8.572;2023-10-08T12:43:20;30.20;38.30
9542;DHT22;4809;48.224;8.572;2023-10-08T12:45:51;30.20;37.70
9542;DHT22;4809;48.224;8.572;2023-10-08T12:50:47;30.90;38.50
9542;DHT22;4809;48.224;8.572;2023-10-08T12:53:19;31.10;37.00
9542;DHT22;4809;48.224;8.572;2023-10-08T12:55:49;31.20;37.10
9542;DHT22;4809;48.224;8.572;2023-10-08T12:58:20;31.20;37.40
9542;DHT22;4809;48.224;8.572;2023-10-08T13:00:48;31.30;38.20
9542;DHT22;4809;48.224;8.572;2023-10-08T13:03:22;31.50;38.50
9542;DHT22;4809;48.224;8.572;2023-10-08T13:05:49;31.80;38.50
9542;DHT22;4809;48.224;8.572;2023-10-08T13:08:19;32.10;37.00
9542;DHT22;4809;48.224;8.572;2023-10-08T13:10:48;32.20;36.90
9542;DHT22;4809;48.224;8.572;2023-10-08T13:13:14;32.30;36.10
9542;DHT22;4809;48.224;8.572;2023-10-08T13:15:40;32.80;36.00
9542;DHT22;4809;48.224;8.572;2023-10-08T13:18:07;32.80;35.70
9542;DHT22;4809;48.224;8.572;2023-10-08T13:20:33;32.70;34.40
9542;DHT22;4809;48.224;8.572;2023-10-08T13:23:03;32.40;35.10
9542;DHT22;4809;48.224;8.572;2023-10-08T13:25:31;32.40;34.70
9542;DHT22;4809;48.224;8.572;2023-10-08T13:28:01;32.50;34.90
9542;DHT22;4809;48.224;8.572;2023-10-08T13:30:27;32.50;34.90
9542;DHT22;4809;48.224;8.572;2023-10-08T13:32:53;32.70;36.40
9542;DHT22;4809;48.224;8.572;2023-10-08T13:35:19;32.90;35.70
9542;DHT22;4809;48.224;8.572;2023-10-08T13:37:45;32.70;35.60
9542;DHT22;4809;48.224;8.572;2023-10-08T13:40:14;32.80;33.70
9542;DHT22;4809;48.224;8.572;2023-10-08T13:42:42;32.90;33.80
9542;DHT22;4809;48.224;8.572;2023-10-08T13:45:08;33.10;35.00
9542;DHT22;4809;48.224;8.572;2023-10-08T13:47:35;33.20;33.50
9542;DHT22;4809;48.224;8.572;2023-10-08T13:50:01;33.50;34.40
9542;DHT22;4809;48.224;8.572;2023-10-08T13:52:35;33.50;33.70
9542;DHT22;4809;48.224;8.572;2023-10-08T13:55:06;33.60;33.30
9542;DHT22;4809;48.224;8.572;2023-10-08T13:57:32;34.20;32.00
9542;DHT22;4809;48.224;8.572;2023-10-08T13:59:58;34.90;31.30
9542;DHT22;4809;48.224;8.572;2023-10-08T14:02:25;35.90;30.50
9542;DHT22;4809;48.224;8.572;2023-10-08T14:04:51;37.30;29.60
9542;DHT22;4809;48.224;8.572;2023-10-08T14:07:18;38.60;28.30
9542;DHT22;4809;48.224;8.572;2023-10-08T14:09:44;39.30;27.30
9542;DHT22;4809;48.224;8.572;2023-10-08T14:12:14;39.80;26.50
9542;DHT22;4809;48.224;8.572;2023-10-08T14:14:40;40.70;26.10
9542;DHT22;4809;48.224;8.572;2023-10-08T14:17:09;41.50;25.50
9542;DHT22;4809;48.224;8.572;2023-10-08T14:19:41;42.70;24.60
9542;DHT22;4809;48.224;8.572;2023-10-08T14:22:17;43.30;23.70
9542;DHT22;4809;48.224;8.572;2023-10-08T14:24:45;43.20;23.50
9542;DHT22;4809;48.224;8.572;2023-10-08T14:27:25;43.10;23.30
9542;DHT22;4809;48.224;8.572;2023-10-08T14:29:57;42.50;23.80
9542;DHT22;4809;48.224;8.572;2023-10-08T14:32:27;42.40;24.00
9542;DHT22;4809;48.224;8.572;2023-10-08T14:34:53;42.50;23.60
9542;DHT22;4809;48.224;8.572;2023-10-08T14:37:22;42.20;24.10
9542;DHT22;4809;48.224;8.572;2023-10-08T14:40:07;42.20;23.90
9542;DHT22;4809;48.224;8.572;2023-10-08T14:42:51;41.60;24.10
9542;DHT22;4809;48.224;8.572;2023-10-08T14:45:34;41.80;24.20
9542;DHT22;4809;48.224;8.572;2023-10-08T14:48:01;41.40;24.50
9542;DHT22;4809;48.224;8.572;2023-10-08T14:50:27;41.10;24.80
9542;DHT22;4809;48.224;8.572;2023-10-08T14:52:54;40.90;25.10
9542;DHT22;4809;48.224;8.572;2023-10-08T14:55:21;41.00;24.60
9542;DHT22;4809;48.224;8.572;2023-10-08T14:57:48;41.10;23.80
9542;DHT22;4809;48.224;8.572;2023-10-08T15:00:17;40.50;24.40
9542;DHT22;4809;48.224;8.572;2023-10-08T15:02:42;39.90;24.70
9542;DHT22;4809;48.224;8.572;2023-10-08T15:05:08;39.90;24.60
9542;DHT22;4809;48.224;8.572;2023-10-08T15:07:34;39.80;24.90
9542;DHT22;4809;48.224;8.572;2023-10-08T15:10:01;39.40;25.00
9542;DHT22;4809;48.224;8.572;2023-10-08T15:12:27;39.10;25.70
9542;DHT22;4809;48.224;8.572;2023-10-08T15:14:53;39.00;25.40
9542;DHT22;4809;48.224;8.572;2023-10-08T15:17:19;38.80;26.50
9542;DHT22;4809;48.224;8.572;2023-10-08T15:19:45;38.30;26.50
9542;DHT22;4809;48.224;8.572;2023-10-08T15:22:13;37.50;27.10
9542;DHT22;4809;48.224;8.572;2023-10-08T15:24:39;36.50;27.50
9542;DHT22;4809;48.224;8.572;2023-10-08T15:27:06;35.70;28.10
9542;DHT22;4809;48.224;8.572;2023-10-08T15:29:31;34.90;28.80
9542;DHT22;4809;48.224;8.572;2023-10-08T15:31:59;34.30;29.40
9542;DHT22;4809;48.224;8.572;2023-10-08T15:34:25;33.80;30.00
9542;DHT22;4809;48.224;8.572;2023-10-08T15:36:52;32.90;32.20
9542;DHT22;4809;48.224;8.572;2023-10-08T15:39:18;32.00;32.70
9542;DHT22;4809;48.224;8.572;2023-10-08T15:41:49;31.10;35.80
9542;DHT22;4809;48.224;8.572;2023-10-08T15:44:18;30.30;35.40
9542;DHT22;4809;48.224;8.572;2023-10-08T15:46:47;29.60;36.60
9542;DHT22;4809;48.224;8.572;2023-10-08T15:49:13;29.10;38.00
9542;DHT22;4809;48.224;8.572;2023-10-08T15:51:39;28.60;38.50
9542;DHT22;4809;48.224;8.572;2023-10-08T15:54:06;28.10;38.40
9542;DHT22;4809;48.224;8.572;2023-10-08T15:56:32;27.80;42.10
9542;DHT22;4809;48.224;8.572;2023-10-08T15:58:57;27.40;42.40
9542;DHT22;4809;48.224;8.572;2023-10-08T16:01:23;27.10;42.20
9542;DHT22;4809;48.224;8.572;2023-10-08T16:03:51;26.70;42.50
9542;DHT22;4809;48.224;8.572;2023-10-08T16:06:17;26.40;45.30
9542;DHT22;4809;48.224;8.572;2023-10-08T16:08:44;26.00;45.00
9542;DHT22;4809;48.224;8.572;2023-10-08T16:11:10;25.80;45.40
9542;DHT22;4809;48.224;8.572;2023-10-08T16:13:35;25.40;45.50
9542;DHT22;4809;48.224;8.572;2023-10-08T16:16:03;25.10;46.60
9542;DHT22;4809;48.224;8.572;2023-10-08T16:18:29;24.80;47.50
9542;DHT22;4809;48.224;8.572;2023-10-08T16:20:54;24.60;47.70
9542;DHT22;4809;48.224;8.572;2023-10-08T16:23:22;24.40;49.90
9542;DHT22;4809;48.224;8.572;2023-10-08T16:25:48;24.20;49.60
9542;DHT22;4809;48.224;8.572;2023-10-08T16:28:19;24.00;50.80
9542;DHT22;4809;48.224;8.572;2023-10-08T16:30:45;23.70;50.10
9542;DHT22;4809;48.224;8.572;2023-10-08T16:33:19;23.40;51.40
9542;DHT22;4809;48.224;8.572;2023-10-08T16:35:48;23.00;51.80
9542;DHT22;4809;48.224;8.572;2023-10-08T16:38:19;22.70;53.10